createdAt,value
2022-11-03T00:00:25.198Z,100.00
2022-11-03T00:02:52.320Z,100.00
2022-11-03T00:05:19.329Z,100.00
2022-11-03T00:07:46.359Z,100.00
2022-11-03T00:10:13.395Z,100.00
2022-11-03T00:12:40.339Z,100.00
2022-11-03T00:15:07.837Z,100.00
2022-11-03T00:17:34.802Z,100.00
2022-11-03T00:20:01.895Z,100.00
2022-11-03T00:22:28.895Z,100.00
2022-11-03T00:24:55.844Z,100.00
2022-11-03T00:27:22.826Z,100.00
2022-11-03T00:29:49.754Z,100.00
2022-11-03T00:32:16.829Z,100.00
2022-11-03T00:34:43.842Z,100.00
2022-11-03T00:37:10.872Z,100.00
2022-11-03T00:39:37.855Z,100.00
2022-11-03T00:42:04.891Z,100.00
2022-11-03T00:44:31.867Z,100.00
2022-11-03T00:46:58.833Z,100.00
2022-11-03T00:49:25.835Z,100.00
2022-11-03T00:51:52.934Z,100.00
2022-11-03T00:54:19.949Z,100.00
2022-11-03T00:56:46.898Z,100.00
2022-11-03T00:59:13.844Z,100.00
2022-11-03T01:01:46.973Z,100.00
2022-11-03T01:04:16.765Z,100.00
2022-11-03T01:06:49.497Z,100.00
2022-11-03T01:09:27.518Z,100.00
2022-11-03T01:12:12.676Z,100.00
2022-11-03T01:14:46.684Z,100.00
2022-11-03T01:17:27.443Z,100.00
2022-11-03T01:19:55.129Z,100.00
2022-11-03T01:22:24.127Z,100.00
2022-11-03T01:24:51.313Z,100.00
2022-11-03T01:27:20.598Z,100.00
2022-11-03T01:29:47.560Z,100.00
2022-11-03T01:32:15.007Z,100.00
2022-11-03T01:34:42.007Z,100.00
2022-11-03T01:37:09.059Z,100.00
2022-11-03T01:39:36.100Z,100.00
2022-11-03T01:42:03.592Z,100.00
2022-11-03T01:44:39.515Z,100.00
2022-11-03T01:47:13.691Z,100.00
2022-11-03T01:49:49.220Z,100.00
2022-11-03T01:52:25.524Z,100.00
2022-11-03T01:55:07.014Z,100.00
2022-11-03T01:57:45.349Z,100.00
2022-11-03T02:00:13.100Z,100.00
2022-11-03T02:02:41.561Z,100.00
2022-11-03T02:05:10.523Z,100.00
2022-11-03T02:07:46.995Z,100.00
2022-11-03T02:10:14.176Z,100.00
2022-11-03T02:12:42.201Z,100.00
2022-11-03T02:15:13.237Z,100.00
2022-11-03T02:17:42.372Z,100.00
2022-11-03T02:20:16.027Z,100.00
2022-11-03T02:22:58.146Z,100.00
2022-11-03T02:25:46.228Z,100.00
2022-11-03T02:28:16.413Z,100.00
2022-11-03T02:30:54.377Z,100.00
2022-11-03T02:33:35.278Z,100.00
2022-11-03T02:36:15.580Z,100.00
2022-11-03T02:39:05.416Z,100.00
2022-11-03T02:41:35.468Z,100.00
2022-11-03T02:44:04.366Z,100.00
2022-11-03T02:46:34.015Z,100.00
2022-11-03T02:49:01.005Z,100.00
2022-11-03T02:51:27.949Z,100.00
2022-11-03T02:54:11.625Z,100.00
2022-11-03T02:56:47.348Z,100.00
2022-11-03T02:59:20.172Z,100.00
2022-11-03T03:01:55.623Z,100.00
2022-11-03T03:04:30.261Z,100.00
2022-11-03T03:07:08.163Z,100.00
2022-11-03T03:09:41.389Z,100.00
2022-11-03T03:12:11.898Z,100.00
2022-11-03T03:14:41.997Z,100.00
2022-11-03T03:17:15.226Z,100.00
2022-11-03T03:19:42.129Z,100.00
2022-11-03T03:22:19.561Z,100.00
2022-11-03T03:24:53.100Z,100.00
2022-11-03T03:27:24.634Z,100.00
2022-11-03T03:30:01.271Z,100.00
2022-11-03T03:32:34.378Z,100.00
2022-11-03T03:35:03.508Z,100.00
2022-11-03T03:37:32.740Z,100.00
2022-11-03T03:40:05.052Z,100.00
2022-11-03T03:42:34.244Z,100.00
2022-11-03T03:45:01.615Z,100.00
2022-11-03T03:47:31.151Z,100.00
2022-11-03T03:49:58.718Z,100.00
2022-11-03T03:52:26.511Z,100.00
2022-11-03T03:54:54.668Z,100.00
2022-11-03T03:57:24.216Z,100.00
2022-11-03T03:59:51.169Z,100.00
2022-11-03T04:02:18.456Z,100.00
2022-11-03T04:04:45.494Z,100.00
2022-11-03T04:07:12.675Z,100.00
2022-11-03T04:09:39.642Z,100.00
2022-11-03T04:12:08.654Z,100.00
2022-11-03T04:14:35.618Z,100.00
2022-11-03T04:17:02.741Z,100.00
2022-11-03T04:19:29.705Z,100.00
2022-11-03T04:21:56.672Z,100.00
2022-11-03T04:24:24.098Z,100.00
2022-11-03T04:26:51.108Z,100.00
2022-11-03T04:29:18.356Z,100.00
2022-11-03T04:31:45.534Z,100.00
2022-11-03T04:34:12.921Z,100.00
2022-11-03T04:36:39.919Z,100.00
2022-11-03T04:39:16.053Z,100.00
2022-11-03T04:41:43.122Z,100.00
2022-11-03T04:44:16.492Z,100.00
2022-11-03T04:46:44.946Z,100.00
2022-11-03T04:49:18.886Z,100.00
2022-11-03T04:51:45.842Z,100.00
2022-11-03T04:54:19.537Z,100.00
2022-11-03T04:56:46.566Z,100.00
2022-11-03T04:59:15.885Z,100.00
2022-11-03T05:01:44.694Z,100.00
2022-11-03T05:04:14.355Z,100.00
2022-11-03T05:06:42.194Z,100.00
2022-11-03T05:09:15.798Z,100.00
2022-11-03T05:11:45.336Z,100.00
2022-11-03T05:14:21.193Z,100.00
2022-11-03T05:16:50.062Z,100.00
2022-11-03T05:19:28.794Z,100.00
2022-11-03T05:21:58.051Z,100.00
2022-11-03T05:24:25.051Z,100.00
2022-11-03T05:26:54.376Z,100.00
2022-11-03T05:29:25.436Z,100.00
2022-11-03T05:31:54.677Z,100.00
2022-11-03T05:34:30.531Z,100.00
2022-11-03T05:37:21.945Z,100.00
2022-11-03T05:39:53.675Z,100.00
2022-11-03T05:42:25.200Z,100.00
2022-11-03T05:44:52.633Z,100.00
2022-11-03T05:47:31.191Z,100.00
2022-11-03T05:50:15.782Z,100.00
2022-11-03T05:52:44.392Z,100.00
2022-11-03T05:55:33.043Z,100.00
2022-11-03T05:58:11.710Z,100.00
2022-11-03T06:00:45.593Z,100.00
2022-11-03T06:03:24.446Z,100.00
2022-11-03T06:05:53.126Z,100.00
2022-11-03T06:08:30.457Z,100.00
2022-11-03T06:10:59.937Z,100.00
2022-11-03T06:13:30.855Z,100.00
2022-11-03T06:16:01.654Z,100.00
2022-11-03T06:18:36.137Z,100.00
2022-11-03T06:21:08.978Z,100.00
2022-11-03T06:23:37.427Z,100.00
2022-11-03T06:26:15.963Z,100.00
2022-11-03T06:28:43.043Z,100.00
2022-11-03T06:31:30.411Z,100.00
2022-11-03T06:33:58.714Z,100.00
2022-11-03T06:36:35.136Z,100.00
2022-11-03T06:39:09.540Z,100.00
2022-11-03T06:41:37.061Z,100.00
2022-11-03T06:44:23.752Z,100.00
2022-11-03T06:46:54.198Z,100.00
2022-11-03T06:49:35.287Z,100.00
2022-11-03T06:52:14.960Z,100.00
2022-11-03T06:54:41.977Z,100.00
2022-11-03T06:57:14.763Z,100.00
2022-11-03T06:59:41.770Z,100.00
2022-11-03T07:02:45.490Z,100.00
2022-11-03T07:05:21.402Z,100.00
2022-11-03T07:07:48.621Z,100.00
2022-11-03T07:10:16.114Z,100.00
2022-11-03T07:12:43.617Z,100.00
2022-11-03T07:15:25.427Z,100.00
2022-11-03T07:17:52.950Z,100.00
2022-11-03T07:20:20.023Z,100.00
2022-11-03T07:22:48.310Z,100.00
2022-11-03T07:25:21.767Z,100.00
2022-11-03T07:27:51.613Z,100.00
2022-11-03T07:30:30.306Z,100.00
2022-11-03T07:33:01.183Z,100.00
2022-11-03T07:35:53.190Z,100.00
2022-11-03T07:38:21.872Z,100.00
2022-11-03T07:40:50.742Z,100.00
2022-11-03T07:43:36.300Z,100.00
2022-11-03T07:46:09.666Z,100.00
2022-11-03T07:48:44.011Z,100.00
2022-11-03T07:51:21.959Z,100.00
2022-11-03T07:53:52.641Z,100.00
2022-11-03T07:56:21.544Z,100.00
2022-11-03T07:59:13.963Z,100.00
2022-11-03T08:01:43.750Z,100.00
2022-11-03T08:04:14.168Z,100.00
2022-11-03T08:06:41.267Z,100.00
2022-11-03T08:09:08.637Z,100.00
2022-11-03T08:11:35.620Z,100.00
2022-11-03T08:14:02.670Z,100.00
2022-11-03T08:16:29.737Z,100.00
2022-11-03T08:18:56.912Z,100.00
2022-11-03T08:21:23.962Z,100.00
2022-11-03T08:23:51.380Z,100.00
2022-11-03T08:26:18.808Z,100.00
2022-11-03T08:28:46.086Z,100.00
2022-11-03T08:31:16.168Z,100.00
2022-11-03T08:33:43.414Z,100.00
2022-11-03T08:36:11.086Z,100.00
2022-11-03T08:38:38.440Z,100.00
2022-11-03T08:41:05.617Z,100.00
2022-11-03T08:43:32.684Z,100.00
2022-11-03T08:46:09.669Z,100.00
2022-11-03T08:48:42.687Z,100.00
2022-11-03T08:51:09.796Z,100.00
2022-11-03T08:53:36.896Z,100.00
2022-11-03T08:56:04.049Z,100.00
2022-11-03T08:58:33.787Z,100.00
2022-11-03T09:01:00.786Z,100.00
2022-11-03T09:03:28.041Z,100.00
2022-11-03T09:05:55.166Z,100.00
2022-11-03T09:11:09.234Z,100.00
2022-11-03T09:13:36.351Z,100.00
2022-11-03T09:16:03.558Z,100.00
2022-11-03T09:18:30.537Z,100.00
2022-11-03T09:20:57.783Z,100.00
2022-11-03T09:23:24.851Z,100.00
2022-11-03T09:25:51.822Z,100.00
2022-11-03T09:28:18.893Z,100.00
2022-11-03T09:30:45.933Z,100.00
2022-11-03T09:33:15.655Z,99.42
2022-11-03T09:35:42.762Z,97.27
2022-11-03T09:38:09.938Z,95.93
2022-11-03T09:40:37.528Z,94.22
2022-11-03T09:43:04.916Z,93.52
2022-11-03T09:45:32.676Z,93.44
2022-11-03T09:48:00.980Z,94.24
2022-11-03T09:50:28.374Z,94.64
2022-11-03T09:52:56.584Z,92.06
2022-11-03T09:55:26.508Z,91.10
2022-11-03T09:58:02.003Z,93.77
2022-11-03T10:00:29.100Z,90.97
2022-11-03T10:02:56.527Z,91.57
2022-11-03T10:05:26.083Z,90.64
2022-11-03T10:07:58.987Z,88.85
2022-11-03T10:10:26.829Z,90.73
2022-11-03T10:12:54.111Z,88.36
2022-11-03T10:15:23.560Z,89.57
2022-11-03T10:17:51.561Z,86.78
2022-11-03T10:20:21.210Z,87.77
2022-11-03T10:22:53.394Z,89.52
2022-11-03T10:25:41.454Z,86.51
2022-11-03T10:28:25.827Z,86.02
2022-11-03T10:31:12.669Z,86.41
2022-11-03T10:33:51.369Z,86.79
2022-11-03T10:36:18.294Z,87.71
2022-11-03T10:38:45.322Z,86.52
2022-11-03T10:41:15.230Z,86.25
2022-11-03T10:43:44.730Z,86.52
2022-11-03T10:46:36.625Z,86.53
2022-11-03T10:49:05.051Z,87.06
2022-11-03T10:51:35.821Z,86.39
2022-11-03T10:54:04.854Z,85.67
2022-11-03T10:56:32.734Z,83.61
2022-11-03T10:59:00.715Z,85.15
2022-11-03T11:01:27.966Z,81.70
2022-11-03T11:03:55.539Z,82.80
2022-11-03T11:06:28.630Z,81.10
2022-11-03T11:09:01.801Z,81.40
2022-11-03T11:11:28.970Z,80.17
2022-11-03T11:14:28.253Z,79.25
2022-11-03T11:16:57.637Z,79.82
2022-11-03T11:19:26.529Z,79.82
2022-11-03T11:21:54.484Z,83.19
2022-11-03T11:24:43.377Z,83.16
2022-11-03T11:27:36.667Z,82.73
2022-11-03T11:30:27.662Z,82.33
2022-11-03T11:33:22.446Z,79.36
2022-11-03T11:35:49.426Z,79.45
2022-11-03T11:38:44.957Z,80.54
2022-11-03T11:41:11.946Z,79.01
2022-11-03T11:43:39.133Z,77.78
2022-11-03T11:46:33.536Z,80.79
2022-11-03T11:49:16.254Z,77.40
2022-11-03T11:51:43.340Z,79.36
2022-11-03T11:54:20.567Z,78.58
2022-11-03T11:56:49.800Z,80.40
2022-11-03T11:59:24.772Z,81.39
2022-11-03T12:01:55.433Z,81.02
2022-11-03T12:04:28.392Z,82.03
2022-11-03T12:06:55.512Z,80.97
2022-11-03T12:09:25.412Z,82.54
2022-11-03T12:11:56.123Z,81.13
2022-11-03T12:14:40.042Z,79.30
2022-11-03T12:17:15.933Z,80.53
2022-11-03T12:19:52.879Z,80.84
2022-11-03T12:22:25.724Z,80.32
2022-11-03T12:24:56.100Z,80.67
2022-11-03T12:27:26.465Z,80.76
2022-11-03T12:29:55.728Z,80.23
2022-11-03T12:32:33.498Z,80.85
2022-11-03T12:35:05.705Z,80.77
2022-11-03T12:37:32.742Z,79.68
2022-11-03T12:39:59.807Z,80.91
2022-11-03T12:42:26.794Z,81.36
2022-11-03T12:44:53.830Z,80.81
2022-11-03T12:47:21.066Z,79.59
2022-11-03T12:49:48.405Z,79.62
2022-11-03T12:52:15.569Z,80.38
2022-11-03T12:54:42.611Z,80.79
2022-11-03T12:57:09.751Z,80.20
2022-11-03T12:59:36.941Z,80.48
2022-11-03T13:02:04.242Z,80.66
2022-11-03T13:04:31.431Z,80.91
2022-11-03T13:06:58.490Z,80.08
2022-11-03T13:09:25.488Z,80.83
2022-11-03T13:11:52.464Z,80.40
2022-11-03T13:14:19.482Z,80.86
2022-11-03T13:16:46.452Z,81.41
2022-11-03T13:19:13.476Z,81.71
2022-11-03T13:21:40.444Z,81.39
2022-11-03T13:24:07.505Z,80.91
2022-11-03T13:26:34.646Z,83.75
2022-11-03T13:29:01.708Z,83.51
2022-11-03T13:31:28.754Z,81.68
2022-11-03T13:33:55.713Z,82.92
2022-11-03T13:36:22.721Z,82.99
2022-11-03T13:38:49.762Z,81.15
2022-11-03T13:41:16.711Z,79.60
2022-11-03T13:43:43.701Z,80.93
2022-11-03T13:46:10.704Z,79.58
2022-11-03T13:49:31.862Z,80.22
2022-11-03T13:51:24.695Z,81.54
2022-11-03T13:59:26.364Z,81.44
2022-11-03T14:04:41.281Z,80.71
2022-11-03T14:07:08.681Z,81.93
2022-11-03T14:12:03.846Z,83.46
2022-11-03T14:14:31.487Z,84.98
2022-11-03T14:16:58.470Z,83.61
2022-11-03T14:19:31.745Z,83.83
2022-11-03T14:22:04.215Z,83.53
2022-11-03T14:24:31.268Z,83.79
2022-11-03T14:26:58.316Z,84.71
2022-11-03T14:29:25.361Z,85.62
2022-11-03T14:31:52.603Z,85.84
2022-11-03T14:34:19.641Z,86.19
2022-11-03T14:36:46.756Z,87.31
2022-11-03T14:39:14.043Z,88.52
2022-11-03T14:41:41.073Z,88.09
2022-11-03T14:44:08.039Z,89.21
2022-11-03T14:46:34.991Z,90.28
2022-11-03T14:49:02.012Z,90.36
2022-11-03T14:51:30.115Z,90.87
2022-11-03T14:53:57.389Z,89.80
2022-11-03T14:56:24.736Z,89.80
2022-11-03T14:58:51.942Z,91.30
2022-11-03T15:01:20.224Z,91.04
2022-11-03T15:03:47.370Z,90.59
2022-11-03T15:06:14.455Z,90.39
2022-11-03T15:08:41.443Z,89.81
2022-11-03T15:11:08.967Z,89.14
2022-11-03T15:13:41.655Z,89.63
2022-11-03T15:16:13.017Z,89.57
2022-11-03T15:18:40.061Z,88.79
2022-11-03T15:21:07.064Z,89.03
2022-11-03T15:26:21.074Z,89.94
2022-11-03T15:28:48.163Z,89.28
2022-11-03T15:31:15.138Z,91.18
2022-11-03T15:33:42.145Z,91.62
2022-11-03T15:36:09.277Z,92.15
2022-11-03T15:38:36.279Z,92.47
2022-11-03T15:41:03.382Z,93.85
2022-11-03T15:43:30.434Z,94.18
2022-11-03T15:45:57.460Z,94.80
2022-11-03T15:48:24.482Z,94.55
2022-11-03T15:50:51.479Z,95.45
2022-11-03T15:53:18.478Z,96.36
2022-11-03T15:55:45.442Z,96.49
2022-11-03T15:58:12.409Z,96.52
2022-11-03T16:00:39.420Z,97.36
2022-11-03T16:03:06.500Z,97.61
2022-11-03T16:05:33.694Z,98.41
2022-11-03T16:08:00.655Z,99.02
2022-11-03T16:10:27.619Z,99.07
2022-11-03T16:12:54.633Z,99.12
2022-11-03T16:15:21.666Z,99.73
2022-11-03T16:17:48.609Z,99.45
2022-11-03T16:20:15.609Z,99.55
2022-11-03T16:22:43.432Z,100.00
2022-11-03T16:25:13.421Z,100.00
2022-11-03T16:27:42.649Z,99.30
2022-11-03T16:30:10.422Z,99.15
2022-11-03T16:32:37.741Z,99.46
2022-11-03T16:35:05.223Z,98.60
2022-11-03T16:37:32.331Z,98.88
2022-11-03T16:39:59.327Z,98.59
2022-11-03T16:42:26.388Z,98.37
2022-11-03T16:44:53.386Z,98.39
2022-11-03T16:47:20.335Z,98.28
2022-11-03T16:49:47.382Z,98.70
2022-11-03T16:52:15.376Z,99.35
2022-11-03T16:54:42.321Z,99.42
2022-11-03T16:57:09.267Z,99.71
2022-11-03T16:59:36.250Z,99.84
2022-11-03T17:02:03.380Z,99.41
2022-11-03T17:04:30.444Z,99.23
2022-11-03T17:06:57.545Z,99.93
2022-11-03T17:09:24.537Z,100.00
2022-11-03T17:11:51.529Z,99.94
2022-11-03T17:14:18.509Z,100.00
2022-11-03T17:16:45.647Z,100.00
2022-11-03T17:19:13.559Z,100.00
2022-11-03T17:21:40.628Z,100.00
2022-11-03T17:24:08.279Z,100.00
2022-11-03T17:26:43.351Z,100.00
2022-11-03T17:29:17.416Z,100.00
2022-11-03T17:31:44.537Z,100.00
2022-11-03T17:34:11.830Z,100.00
2022-11-03T17:36:39.165Z,100.00
2022-11-03T17:39:06.164Z,100.00
2022-11-03T17:41:35.371Z,100.00
2022-11-03T17:44:02.517Z,100.00
2022-11-03T17:46:30.525Z,100.00
2022-11-03T17:48:57.594Z,100.00
2022-11-03T17:51:24.681Z,100.00
2022-11-03T17:53:51.847Z,100.00
2022-11-03T17:56:30.157Z,100.00
2022-11-03T17:58:58.169Z,100.00
2022-11-03T18:01:26.610Z,100.00
2022-11-03T18:03:53.911Z,100.00
2022-11-03T18:06:21.652Z,100.00
2022-11-03T18:08:49.151Z,100.00
2022-11-03T18:11:24.324Z,100.00
2022-11-03T18:13:51.383Z,100.00
2022-11-03T18:16:18.469Z,100.00
2022-11-03T18:18:45.715Z,100.00
2022-11-03T18:21:21.806Z,100.00
2022-11-03T18:23:48.985Z,100.00
2022-11-03T18:26:21.365Z,100.00
2022-11-03T18:28:49.320Z,100.00
2022-11-03T18:31:23.530Z,100.00
2022-11-03T18:33:52.014Z,100.00
2022-11-03T18:36:20.053Z,100.00
2022-11-03T18:38:47.633Z,100.00
2022-11-03T18:41:19.820Z,100.00
2022-11-03T18:43:46.810Z,100.00
2022-11-03T18:46:13.780Z,100.00
2022-11-03T18:48:40.995Z,100.00
2022-11-03T18:51:08.753Z,100.00
2022-11-03T18:53:35.769Z,100.00
2022-11-03T18:56:02.837Z,100.00
2022-11-03T18:58:32.955Z,100.00
2022-11-03T19:01:00.015Z,100.00
2022-11-03T19:03:27.707Z,100.00
2022-11-03T19:05:54.833Z,100.00
2022-11-03T19:08:32.998Z,100.00
2022-11-03T19:11:00.454Z,100.00
2022-11-03T19:13:35.167Z,100.00
2022-11-03T19:16:09.443Z,100.00
2022-11-03T19:18:36.642Z,100.00
2022-11-03T19:21:11.639Z,100.00
2022-11-03T19:23:38.660Z,100.00
2022-11-03T19:26:12.920Z,100.00
2022-11-03T19:28:39.944Z,100.00
2022-11-03T19:31:14.009Z,100.00
2022-11-03T19:33:42.568Z,100.00
2022-11-03T19:36:09.622Z,100.00
2022-11-03T19:38:36.641Z,100.00
2022-11-03T19:41:03.684Z,100.00
2022-11-03T19:43:34.616Z,100.00
2022-11-03T19:46:04.178Z,100.00
2022-11-03T19:48:34.125Z,100.00
2022-11-03T19:51:02.654Z,100.00
2022-11-03T19:53:29.891Z,100.00
2022-11-03T19:55:57.096Z,100.00
2022-11-03T19:58:26.678Z,100.00
2022-11-03T20:00:54.839Z,100.00
2022-11-03T20:03:23.096Z,100.00
2022-11-03T20:05:57.152Z,100.00
2022-11-03T20:08:30.845Z,100.00
2022-11-03T20:10:58.175Z,100.00
2022-11-03T20:13:29.182Z,100.00
2022-11-03T20:16:00.754Z,100.00
2022-11-03T20:18:28.653Z,100.00
2022-11-03T20:20:56.234Z,100.00
2022-11-03T20:23:28.618Z,100.00
2022-11-03T20:25:57.201Z,100.00
2022-11-03T20:28:27.251Z,100.00
2022-11-03T20:30:55.033Z,100.00
2022-11-03T20:33:24.971Z,100.00
2022-11-03T20:35:55.484Z,100.00
2022-11-03T20:38:24.819Z,100.00
2022-11-03T20:40:54.430Z,100.00
2022-11-03T20:43:27.826Z,100.00
2022-11-03T20:45:56.698Z,100.00
2022-11-03T20:48:24.136Z,100.00
2022-11-03T20:50:52.139Z,100.00
2022-11-03T20:53:22.296Z,100.00
2022-11-03T20:55:50.555Z,100.00
2022-11-03T20:58:18.125Z,100.00
2022-11-03T21:00:47.121Z,100.00
2022-11-03T21:06:16.490Z,100.00
2022-11-03T21:08:44.586Z,100.00
2022-11-03T21:11:20.813Z,100.00
2022-11-03T21:13:48.415Z,100.00
2022-11-03T21:16:24.746Z,100.00
2022-11-03T21:18:51.939Z,100.00
2022-11-03T21:21:21.234Z,100.00
2022-11-03T21:23:49.580Z,100.00
2022-11-03T21:26:16.645Z,100.00
2022-11-03T21:28:43.697Z,100.00
2022-11-03T21:31:13.129Z,100.00
2022-11-03T21:33:40.188Z,100.00
2022-11-03T21:36:07.584Z,100.00
2022-11-03T21:38:34.600Z,100.00
2022-11-03T21:41:01.581Z,100.00
2022-11-03T21:43:29.596Z,100.00
2022-11-03T21:46:07.866Z,100.00
2022-11-03T21:48:36.004Z,100.00
2022-11-03T21:51:03.747Z,100.00
2022-11-03T21:53:31.225Z,100.00
2022-11-03T21:55:58.205Z,100.00
2022-11-03T21:58:25.175Z,100.00
2022-11-03T22:00:52.218Z,100.00
2022-11-03T22:03:20.263Z,100.00
2022-11-03T22:05:47.254Z,100.00
2022-11-03T22:08:14.243Z,100.00
2022-11-03T22:10:41.275Z,100.00
2022-11-03T22:13:08.646Z,100.00
2022-11-03T22:15:35.965Z,100.00
2022-11-03T22:18:04.717Z,100.00
2022-11-03T22:20:31.876Z,100.00
2022-11-03T22:23:02.067Z,100.00
2022-11-03T22:25:29.190Z,100.00
2022-11-03T22:27:57.139Z,100.00
2022-11-03T22:30:24.142Z,100.00
2022-11-03T22:32:53.423Z,100.00
2022-11-03T22:35:22.034Z,100.00
2022-11-03T22:38:26.970Z,100.00
2022-11-03T22:40:53.997Z,100.00
2022-11-03T22:43:21.572Z,100.00
2022-11-03T22:45:48.618Z,100.00
2022-11-03T22:48:15.741Z,100.00
2022-11-03T22:50:43.274Z,100.00
2022-11-03T22:53:10.513Z,100.00
2022-11-03T22:55:37.670Z,100.00
2022-11-03T22:58:04.628Z,100.00
2022-11-03T23:00:31.844Z,100.00
2022-11-03T23:02:58.892Z,100.00
2022-11-03T23:05:25.913Z,100.00
2022-11-03T23:07:52.926Z,100.00
2022-11-03T23:10:20.045Z,100.00
2022-11-03T23:12:47.050Z,100.00
2022-11-03T23:15:14.223Z,100.00
2022-11-03T23:17:41.235Z,100.00
2022-11-03T23:20:08.905Z,100.00
2022-11-03T23:22:35.956Z,100.00
2022-11-03T23:25:03.212Z,100.00
2022-11-03T23:27:30.235Z,100.00
2022-11-03T23:29:57.198Z,100.00
2022-11-03T23:32:24.364Z,100.00
2022-11-03T23:34:51.388Z,100.00
2022-11-03T23:37:18.333Z,100.00
2022-11-03T23:39:45.334Z,100.00
2022-11-03T23:42:12.340Z,100.00
2022-11-03T23:44:39.409Z,100.00
2022-11-03T23:47:08.310Z,100.00
2022-11-03T23:49:35.343Z,100.00
2022-11-03T23:52:02.393Z,100.00
2022-11-03T23:54:29.481Z,100.00
2022-11-03T23:56:56.482Z,100.00
2022-11-03T23:59:24.245Z,100.00
